sensor_id;sensor_type;location;lat;lon;timestamp;pressure;altitude;pressure_sealevel;temperature;humidity
14343;BME280;7255;53.596;9.960;2023-02-16T06:49:41;101499.97;;;4.17;nan
14343;BME280;7255;53.596;9.960;2023-02-16T06:52:08;101532.41;;;4.20;nan
14343;BME280;7255;53.596;9.960;2023-02-16T06:54:34;101485.34;;;4.21;nan
14343;BME280;7255;53.596;9.960;2023-02-16T06:57:02;101504.81;;;4.30;nan
14343;BME280;7255;53.596;9.960;2023-02-16T07:04:21;101329.88;;;4.40;nan
14343;BME280;7255;53.596;9.960;2023-02-16T07:18:59;101447.44;;;4.76;nan
14343;BME280;7255;53.596;9.960;2023-02-16T07:21:26;101418.12;;;4.85;nan
14343;BME280;7255;53.596;9.960;2023-02-16T07:23:52;101497.81;;;4.94;nan
14343;BME280;7255;53.596;9.960;2023-02-16T07:26:18;101407.28;;;4.94;nan
14343;BME280;7255;53.596;9.960;2023-02-16T07:28:45;101424.22;;;5.01;nan
14343;BME280;7255;53.596;9.960;2023-02-16T07:31:14;101448.88;;;5.04;nan
14343;BME280;7255;53.596;9.960;2023-02-16T07:33:41;101443.19;;;5.07;nan
14343;BME280;7255;53.596;9.960;2023-02-16T07:36:09;101440.16;;;5.18;nan
14343;BME280;7255;53.596;9.960;2023-02-16T07:38:35;101424.53;;;5.15;nan
14343;BME280;7255;53.596;9.960;2023-02-16T07:41:02;101416.16;;;5.26;nan
14343;BME280;7255;53.596;9.960;2023-02-16T07:43:29;101452.44;;;5.35;nan
14343;BME280;7255;53.596;9.960;2023-02-16T07:45:55;101460.41;;;5.44;nan
14343;BME280;7255;53.596;9.960;2023-02-16T07:48:23;101468.72;;;5.49;nan
14343;BME280;7255;53.596;9.960;2023-02-16T07:50:49;101466.38;;;5.54;nan
14343;BME280;7255;53.596;9.960;2023-02-16T07:53:15;101475.66;;;5.66;nan
14343;BME280;7255;53.596;9.960;2023-02-16T07:55:43;101510.75;;;5.78;nan
14343;BME280;7255;53.596;9.960;2023-02-16T07:58:10;101513.19;;;5.96;nan
14343;BME280;7255;53.596;9.960;2023-02-16T08:00:36;101517.87;;;5.86;nan
14343;BME280;7255;53.596;9.960;2023-02-16T08:03:03;101535.56;;;5.87;nan
14343;BME280;7255;53.596;9.960;2023-02-16T08:05:32;101524.87;;;5.87;nan
14343;BME280;7255;53.596;9.960;2023-02-16T08:07:59;101526.19;;;5.91;nan
14343;BME280;7255;53.596;9.960;2023-02-16T08:10:25;101528.69;;;5.92;nan
14343;BME280;7255;53.596;9.960;2023-02-16T08:12:51;101521.84;;;5.98;nan
14343;BME280;7255;53.596;9.960;2023-02-16T08:15:18;101506.03;;;5.88;nan
14343;BME280;7255;53.596;9.960;2023-02-16T08:17:44;101509.16;;;6.00;nan
14343;BME280;7255;53.596;9.960;2023-02-16T08:20:11;101523.78;;;6.12;nan
14343;BME280;7255;53.596;9.960;2023-02-16T08:22:39;101508.81;;;6.03;nan
14343;BME280;7255;53.596;9.960;2023-02-16T08:25:06;101542.63;;;6.11;nan
14343;BME280;7255;53.596;9.960;2023-02-16T08:27:32;101522.09;;;6.11;nan
14343;BME280;7255;53.596;9.960;2023-02-16T08:29:58;101518.69;;;6.26;nan
14343;BME280;7255;53.596;9.960;2023-02-16T08:32:25;101553.34;;;6.34;nan
14343;BME280;7255;53.596;9.960;2023-02-16T08:34:51;101559.50;;;6.34;nan
14343;BME280;7255;53.596;9.960;2023-02-16T08:37:18;101542.19;;;6.53;nan
14343;BME280;7255;53.596;9.960;2023-02-16T08:39:45;101540.88;;;6.49;nan
14343;BME280;7255;53.596;9.960;2023-02-16T08:42:13;101529.25;;;6.42;nan
14343;BME280;7255;53.596;9.960;2023-02-16T08:44:39;101529.00;;;6.52;nan
14343;BME280;7255;53.596;9.960;2023-02-16T08:47:06;101541.72;;;6.73;nan
14343;BME280;7255;53.596;9.960;2023-02-16T08:49:35;101535.16;;;6.75;nan
14343;BME280;7255;53.596;9.960;2023-02-16T08:52:03;101531.63;;;6.83;nan
14343;BME280;7255;53.596;9.960;2023-02-16T08:54:30;101594.41;;;6.79;nan
14343;BME280;7255;53.596;9.960;2023-02-16T08:56:59;101522.09;;;6.81;nan
14343;BME280;7255;53.596;9.960;2023-02-16T08:59:27;101593.34;;;6.88;nan
14343;BME280;7255;53.596;9.960;2023-02-16T09:01:53;101536.22;;;6.89;nan
14343;BME280;7255;53.596;9.960;2023-02-16T09:04:20;101512.38;;;6.88;nan
14343;BME280;7255;53.596;9.960;2023-02-16T09:06:46;101532.31;;;7.00;nan
14343;BME280;7255;53.596;9.960;2023-02-16T09:09:13;101555.22;;;6.94;nan
14343;BME280;7255;53.596;9.960;2023-02-16T09:11:40;101553.19;;;6.97;nan
14343;BME280;7255;53.596;9.960;2023-02-16T09:14:08;101565.37;;;7.14;nan
14343;BME280;7255;53.596;9.960;2023-02-16T09:16:36;101554.00;;;7.20;nan
14343;BME280;7255;53.596;9.960;2023-02-16T09:19:10;101550.91;;;7.08;nan
14343;BME280;7255;53.596;9.960;2023-02-16T09:21:37;101571.19;;;7.18;nan
14343;BME280;7255;53.596;9.960;2023-02-16T09:24:05;101567.41;;;7.12;nan
14343;BME280;7255;53.596;9.960;2023-02-16T09:26:33;101574.16;;;7.23;nan
14343;BME280;7255;53.596;9.960;2023-02-16T09:29:02;101658.28;;;7.35;nan
14343;BME280;7255;53.596;9.960;2023-02-16T09:31:33;101608.59;;;7.41;nan
14343;BME280;7255;53.596;9.960;2023-02-16T09:34:01;101611.78;;;7.36;nan
14343;BME280;7255;53.596;9.960;2023-02-16T09:36:28;101589.22;;;7.39;nan
14343;BME280;7255;53.596;9.960;2023-02-16T09:38:55;101601.00;;;7.29;nan
14343;BME280;7255;53.596;9.960;2023-02-16T09:41:37;101606.59;;;7.20;nan
14343;BME280;7255;53.596;9.960;2023-02-16T09:44:13;101610.16;;;7.35;nan
14343;BME280;7255;53.596;9.960;2023-02-16T09:46:47;101629.87;;;7.34;nan
14343;BME280;7255;53.596;9.960;2023-02-16T09:49:21;101658.00;;;7.45;nan
14343;BME280;7255;53.596;9.960;2023-02-16T09:51:57;101655.00;;;7.63;nan
14343;BME280;7255;53.596;9.960;2023-02-16T09:54:36;101665.91;;;7.76;nan
14343;BME280;7255;53.596;9.960;2023-02-16T09:57:12;101670.38;;;7.99;nan
14343;BME280;7255;53.596;9.960;2023-02-16T09:59:48;101679.69;;;7.88;nan
14343;BME280;7255;53.596;9.960;2023-02-16T10:02:36;101729.72;;;8.02;nan
14343;BME280;7255;53.596;9.960;2023-02-16T10:05:14;101716.34;;;8.17;nan
14343;BME280;7255;53.596;9.960;2023-02-16T10:07:58;101747.81;;;8.30;nan
14343;BME280;7255;53.596;9.960;2023-02-16T10:10:30;101688.91;;;8.30;nan
14343;BME280;7255;53.596;9.960;2023-02-16T10:13:02;101692.13;;;7.96;nan
14343;BME280;7255;53.596;9.960;2023-02-16T10:15:31;101689.00;;;8.07;nan
14343;BME280;7255;53.596;9.960;2023-02-16T10:18:02;101780.13;;;8.14;nan
14343;BME280;7255;53.596;9.960;2023-02-16T10:20:33;101692.25;;;8.02;nan
14343;BME280;7255;53.596;9.960;2023-02-16T10:23:06;101690.56;;;8.01;nan
14343;BME280;7255;53.596;9.960;2023-02-16T10:25:40;101692.88;;;7.89;nan
14343;BME280;7255;53.596;9.960;2023-02-16T10:28:14;101645.72;;;7.74;nan
14343;BME280;7255;53.596;9.960;2023-02-16T10:30:45;101632.03;;;7.68;nan
14343;BME280;7255;53.596;9.960;2023-02-16T10:33:18;101652.69;;;7.75;nan
14343;BME280;7255;53.596;9.960;2023-02-16T10:35:49;101636.66;;;7.75;nan
14343;BME280;7255;53.596;9.960;2023-02-16T10:38:19;101640.19;;;7.90;nan
14343;BME280;7255;53.596;9.960;2023-02-16T10:40:52;101675.25;;;7.95;nan
14343;BME280;7255;53.596;9.960;2023-02-16T10:43:24;101663.44;;;8.04;nan
14343;BME280;7255;53.596;9.960;2023-02-16T10:45:59;101645.69;;;8.03;nan
14343;BME280;7255;53.596;9.960;2023-02-16T10:48:29;101643.84;;;7.89;nan
14343;BME280;7255;53.596;9.960;2023-02-16T10:50:57;101684.00;;;8.04;nan
14343;BME280;7255;53.596;9.960;2023-02-16T10:53:34;101676.53;;;7.99;nan
14343;BME280;7255;53.596;9.960;2023-02-16T10:56:20;101692.06;;;8.19;nan
14343;BME280;7255;53.596;9.960;2023-02-16T10:58:49;101674.78;;;8.21;nan
14343;BME280;7255;53.596;9.960;2023-02-16T11:01:18;101713.84;;;8.45;nan
14343;BME280;7255;53.596;9.960;2023-02-16T11:03:48;101720.56;;;8.56;nan
14343;BME280;7255;53.596;9.960;2023-02-16T11:06:18;101731.44;;;8.70;nan
14343;BME280;7255;53.596;9.960;2023-02-16T11:08:49;101695.44;;;8.94;nan
14343;BME280;7255;53.596;9.960;2023-02-16T11:11:16;101710.09;;;8.76;nan
14343;BME280;7255;53.596;9.960;2023-02-16T11:13:46;101710.88;;;8.70;nan
14343;BME280;7255;53.596;9.960;2023-02-16T11:16:18;101697.78;;;8.82;nan
14343;BME280;7255;53.596;9.960;2023-02-16T11:18:54;101704.28;;;9.09;nan
14343;BME280;7255;53.596;9.960;2023-02-16T11:21:41;101727.09;;;9.27;nan
14343;BME280;7255;53.596;9.960;2023-02-16T11:24:11;101738.63;;;9.20;nan
14343;BME280;7255;53.596;9.960;2023-02-16T11:26:38;101719.13;;;9.12;nan
14343;BME280;7255;53.596;9.960;2023-02-16T11:29:18;101696.84;;;9.11;nan
14343;BME280;7255;53.596;9.960;2023-02-16T11:31:44;101677.34;;;8.96;nan
14343;BME280;7255;53.596;9.960;2023-02-16T11:34:20;101695.44;;;8.94;nan
14343;BME280;7255;53.596;9.960;2023-02-16T11:36:49;101710.41;;;9.03;nan
14343;BME280;7255;53.596;9.960;2023-02-16T11:39:18;101725.09;;;9.29;nan
14343;BME280;7255;53.596;9.960;2023-02-16T11:41:48;101733.78;;;9.31;nan
14343;BME280;7255;53.596;9.960;2023-02-16T11:44:24;101721.28;;;9.23;nan
14343;BME280;7255;53.596;9.960;2023-02-16T11:46:52;101677.94;;;9.19;nan
14343;BME280;7255;53.596;9.960;2023-02-16T11:49:29;101657.16;;;9.00;nan
14343;BME280;7255;53.596;9.960;2023-02-16T11:51:55;101677.13;;;9.19;nan
14343;BME280;7255;53.596;9.960;2023-02-16T11:54:22;101679.25;;;9.23;nan
14343;BME280;7255;53.596;9.960;2023-02-16T11:57:01;101707.78;;;9.31;nan
14343;BME280;7255;53.596;9.960;2023-02-16T11:59:33;101703.75;;;9.42;nan
14343;BME280;7255;53.596;9.960;2023-02-16T12:02:29;101700.00;;;9.36;nan
14343;BME280;7255;53.596;9.960;2023-02-16T12:05:14;101663.25;;;8.94;nan
14343;BME280;7255;53.596;9.960;2023-02-16T12:07:50;101689.81;;;9.10;nan
14343;BME280;7255;53.596;9.960;2023-02-16T12:10:29;101727.09;;;9.27;nan
14343;BME280;7255;53.596;9.960;2023-02-16T12:13:03;101717.28;;;9.34;nan
14343;BME280;7255;53.596;9.960;2023-02-16T12:15:38;101725.50;;;9.32;nan
14343;BME280;7255;53.596;9.960;2023-02-16T12:18:20;101675.28;;;8.98;nan
14343;BME280;7255;53.596;9.960;2023-02-16T12:20:57;101685.69;;;9.08;nan
14343;BME280;7255;53.596;9.960;2023-02-16T12:23:38;101698.47;;;9.05;nan
14343;BME280;7255;53.596;9.960;2023-02-16T12:26:30;101707.25;;;9.21;nan
14343;BME280;7255;53.596;9.960;2023-02-16T12:29:08;101688.19;;;9.09;nan
14343;BME280;7255;53.596;9.960;2023-02-16T12:31:50;101659.56;;;8.95;nan
14343;BME280;7255;53.596;9.960;2023-02-16T12:34:29;101670.38;;;9.01;nan
14343;BME280;7255;53.596;9.960;2023-02-16T12:37:09;101670.66;;;8.92;nan
14343;BME280;7255;53.596;9.960;2023-02-16T12:39:46;101662.31;;;8.80;nan
14343;BME280;7255;53.596;9.960;2023-02-16T12:42:30;101652.50;;;8.87;nan
14343;BME280;7255;53.596;9.960;2023-02-16T12:45:03;101642.97;;;8.84;nan
14343;BME280;7255;53.596;9.960;2023-02-16T12:47:34;101649.63;;;8.89;nan
14343;BME280;7255;53.596;9.960;2023-02-16T12:50:04;101651.03;;;9.06;nan
14343;BME280;7255;53.596;9.960;2023-02-16T12:52:37;101659.25;;;9.04;nan
14343;BME280;7255;53.596;9.960;2023-02-16T12:55:15;101663.47;;;9.14;nan
14343;BME280;7255;53.596;9.960;2023-02-16T12:57:49;101632.00;;;9.01;nan
14343;BME280;7255;53.596;9.960;2023-02-16T13:00:21;101650.19;;;9.05;nan
14343;BME280;7255;53.596;9.960;2023-02-16T13:02:54;101635.03;;;9.19;nan
14343;BME280;7255;53.596;9.960;2023-02-16T13:05:24;101626.50;;;9.31;nan
14343;BME280;7255;53.596;9.960;2023-02-16T13:07:58;101638.50;;;9.35;nan
14343;BME280;7255;53.596;9.960;2023-02-16T13:10:32;101610.00;;;9.34;nan
14343;BME280;7255;53.596;9.960;2023-02-16T13:13:03;101619.47;;;9.30;nan
14343;BME280;7255;53.596;9.960;2023-02-16T13:15:34;101629.75;;;9.26;nan
14343;BME280;7255;53.596;9.960;2023-02-16T13:18:04;101607.38;;;9.12;nan
14343;BME280;7255;53.596;9.960;2023-02-16T13:20:32;101579.78;;;9.18;nan
14343;BME280;7255;53.596;9.960;2023-02-16T13:23:41;101598.28;;;9.13;nan
14343;BME280;7255;53.596;9.960;2023-02-16T13:26:41;101589.50;;;8.98;nan
14343;BME280;7255;53.596;9.960;2023-02-16T13:29:27;101575.91;;;8.99;nan
14343;BME280;7255;53.596;9.960;2023-02-16T13:32:08;101557.06;;;9.14;nan
14343;BME280;7255;53.596;9.960;2023-02-16T13:34:58;101570.69;;;9.19;nan
14343;BME280;7255;53.596;9.960;2023-02-16T13:37:40;101602.03;;;9.19;nan
14343;BME280;7255;53.596;9.960;2023-02-16T13:40:32;101559.59;;;9.22;nan
14343;BME280;7255;53.596;9.960;2023-02-16T13:43:12;101576.09;;;9.26;nan
14343;BME280;7255;53.596;9.960;2023-02-16T13:45:45;101568.53;;;9.08;nan
14343;BME280;7255;53.596;9.960;2023-02-16T13:48:22;101634.22;;;9.19;nan
14343;BME280;7255;53.596;9.960;2023-02-16T13:50:56;101564.84;;;9.09;nan
14343;BME280;7255;53.596;9.960;2023-02-16T13:53:23;101569.72;;;8.99;nan
14343;BME280;7255;53.596;9.960;2023-02-16T13:56:11;101563.09;;;8.95;nan
14343;BME280;7255;53.596;9.960;2023-02-16T13:58:38;101537.94;;;8.96;nan
14343;BME280;7255;53.596;9.960;2023-02-16T14:01:37;101554.03;;;8.96;nan
14343;BME280;7255;53.596;9.960;2023-02-16T14:04:08;101547.88;;;9.02;nan
14343;BME280;7255;53.596;9.960;2023-02-16T14:06:38;101526.88;;;9.05;nan
14343;BME280;7255;53.596;9.960;2023-02-16T14:09:44;101533.12;;;9.13;nan
14343;BME280;7255;53.596;9.960;2023-02-16T14:12:18;101609.97;;;9.27;nan
14343;BME280;7255;53.596;9.960;2023-02-16T14:14:56;101589.78;;;9.31;nan
14343;BME280;7255;53.596;9.960;2023-02-16T14:17:26;101577.81;;;9.34;nan
14343;BME280;7255;53.596;9.960;2023-02-16T14:19:55;101588.09;;;9.30;nan
14343;BME280;7255;53.596;9.960;2023-02-16T14:22:26;101600.16;;;9.41;nan
14343;BME280;7255;53.596;9.960;2023-02-16T14:24:56;101591.03;;;9.35;nan
14343;BME280;7255;53.596;9.960;2023-02-16T14:27:42;101580.28;;;9.29;nan
14343;BME280;7255;53.596;9.960;2023-02-16T14:30:18;101567.81;;;9.21;nan
14343;BME280;7255;53.596;9.960;2023-02-16T14:32:49;101579.44;;;9.28;nan
14343;BME280;7255;53.596;9.960;2023-02-16T14:35:19;101564.84;;;9.09;nan
14343;BME280;7255;53.596;9.960;2023-02-16T14:37:53;101525.66;;;9.08;nan
14343;BME280;7255;53.596;9.960;2023-02-16T14:40:29;101567.38;;;9.17;nan
14343;BME280;7255;53.596;9.960;2023-02-16T14:43:14;101528.13;;;9.10;nan
14343;BME280;7255;53.596;9.960;2023-02-16T14:45:57;101517.12;;;9.26;nan
14343;BME280;7255;53.596;9.960;2023-02-16T14:48:44;101431.25;;;9.19;nan
14343;BME280;7255;53.596;9.960;2023-02-16T14:51:54;101442.47;;;9.30;nan
14343;BME280;7255;53.596;9.960;2023-02-16T14:57:41;101500.56;;;9.16;nan
14343;BME280;7255;53.596;9.960;2023-02-16T15:00:22;101490.28;;;9.26;nan
14343;BME280;7255;53.596;9.960;2023-02-16T15:02:56;101553.91;;;9.39;nan
14343;BME280;7255;53.596;9.960;2023-02-16T15:05:25;101555.59;;;9.40;nan
14343;BME280;7255;53.596;9.960;2023-02-16T15:08:00;101506.44;;;9.33;nan
14343;BME280;7255;53.596;9.960;2023-02-16T15:10:28;101413.06;;;9.08;nan
14343;BME280;7255;53.596;9.960;2023-02-16T15:12:56;101411.81;;;9.04;nan
14343;BME280;7255;53.596;9.960;2023-02-16T15:15:28;101595.69;;;8.98;nan
14343;BME280;7255;53.596;9.960;2023-02-16T15:17:56;101501.69;;;9.00;nan
14343;BME280;7255;53.596;9.960;2023-02-16T15:20:27;101552.03;;;9.04;nan
14343;BME280;7255;53.596;9.960;2023-02-16T15:22:56;101543.34;;;9.02;nan
14343;BME280;7255;53.596;9.960;2023-02-16T15:25:27;101514.03;;;9.01;nan
14343;BME280;7255;53.596;9.960;2023-02-16T15:27:55;101490.87;;;8.86;nan
14343;BME280;7255;53.596;9.960;2023-02-16T15:30:27;101551.38;;;8.74;nan
14343;BME280;7255;53.596;9.960;2023-02-16T15:32:56;101595.87;;;8.75;nan
14343;BME280;7255;53.596;9.960;2023-02-16T15:35:26;101587.22;;;8.73;nan
14343;BME280;7255;53.596;9.960;2023-02-16T15:38:01;101555.91;;;8.74;nan
14343;BME280;7255;53.596;9.960;2023-02-16T15:40:28;101574.06;;;8.78;nan
14343;BME280;7255;53.596;9.960;2023-02-16T15:43:04;101540.19;;;8.71;nan
14343;BME280;7255;53.596;9.960;2023-02-16T15:45:36;101527.63;;;8.50;nan
14343;BME280;7255;53.596;9.960;2023-02-16T15:48:13;101525.59;;;8.52;nan
14343;BME280;7255;53.596;9.960;2023-02-16T15:50:40;101549.13;;;8.56;nan
14343;BME280;7255;53.596;9.960;2023-02-16T15:53:10;101488.97;;;8.59;nan
14343;BME280;7255;53.596;9.960;2023-02-16T15:55:41;101482.72;;;8.52;nan
14343;BME280;7255;53.596;9.960;2023-02-16T15:58:08;101474.91;;;8.50;nan
14343;BME280;7255;53.596;9.960;2023-02-16T16:00:40;101500.41;;;8.46;nan
14343;BME280;7255;53.596;9.960;2023-02-16T16:03:08;101533.00;;;8.50;nan
14343;BME280;7255;53.596;9.960;2023-02-16T16:05:37;101467.44;;;8.45;nan
14343;BME280;7255;53.596;9.960;2023-02-16T16:08:10;101498.66;;;8.38;nan
14343;BME280;7255;53.596;9.960;2023-02-16T16:10:38;101527.78;;;8.26;nan
14343;BME280;7255;53.596;9.960;2023-02-16T16:13:11;101498.91;;;8.22;nan
14343;BME280;7255;53.596;9.960;2023-02-16T16:15:41;101453.72;;;8.34;nan
14343;BME280;7255;53.596;9.960;2023-02-16T16:18:36;101413.78;;;8.39;nan
14343;BME280;7255;53.596;9.960;2023-02-16T16:21:12;101397.94;;;8.16;nan
14343;BME280;7255;53.596;9.960;2023-02-16T16:23:38;101463.78;;;8.10;nan
14343;BME280;7255;53.596;9.960;2023-02-16T16:26:16;101392.97;;;8.13;nan
14343;BME280;7255;53.596;9.960;2023-02-16T16:28:42;101452.31;;;8.16;nan
14343;BME280;7255;53.596;9.960;2023-02-16T16:31:11;101447.31;;;8.13;nan
14343;BME280;7255;53.596;9.960;2023-02-16T16:33:52;101376.91;;;8.13;nan
14343;BME280;7255;53.596;9.960;2023-02-16T16:36:19;101446.50;;;8.13;nan
14343;BME280;7255;53.596;9.960;2023-02-16T16:38:46;101371.50;;;8.06;nan
14343;BME280;7255;53.596;9.960;2023-02-16T16:41:24;101364.12;;;8.08;nan
14343;BME280;7255;53.596;9.960;2023-02-16T16:43:53;101329.09;;;8.09;nan
14343;BME280;7255;53.596;9.960;2023-02-16T16:46:23;101422.56;;;8.04;nan
14343;BME280;7255;53.596;9.960;2023-02-16T16:48:52;101340.59;;;8.03;nan
14343;BME280;7255;53.596;9.960;2023-02-16T16:51:35;101336.91;;;8.04;nan
14343;BME280;7255;53.596;9.960;2023-02-16T16:54:03;101345.13;;;8.03;nan
14343;BME280;7255;53.596;9.960;2023-02-16T16:56:33;101335.69;;;8.07;nan
14343;BME280;7255;53.596;9.960;2023-02-16T16:59:00;101344.31;;;8.02;nan
14343;BME280;7255;53.596;9.960;2023-02-16T17:01:28;101340.59;;;8.03;nan
14343;BME280;7255;53.596;9.960;2023-02-16T17:03:54;101710.69;;;7.97;nan
14343;BME280;7255;53.596;9.960;2023-02-16T17:06:22;101707.72;;;7.92;nan
14343;BME280;7255;53.596;9.960;2023-02-16T17:08:49;101671.00;;;7.86;nan
14343;BME280;7255;53.596;9.960;2023-02-16T17:11:21;101639.34;;;7.89;nan
14343;BME280;7255;53.596;9.960;2023-02-16T17:13:48;101626.63;;;7.92;nan
14343;BME280;7255;53.596;9.960;2023-02-16T17:16:18;101723.50;;;8.02;nan
14343;BME280;7255;53.596;9.960;2023-02-16T17:18:47;101704.13;;;8.00;nan
14343;BME280;7255;53.596;9.960;2023-02-16T17:21:14;101705.81;;;8.01;nan
14343;BME280;7255;53.596;9.960;2023-02-16T17:23:40;101722.97;;;7.92;nan
14343;BME280;7255;53.596;9.960;2023-02-16T17:26:07;101694.06;;;7.87;nan
14343;BME280;7255;53.596;9.960;2023-02-16T17:28:33;101728.94;;;7.79;nan
14343;BME280;7255;53.596;9.960;2023-02-16T17:31:01;101715.47;;;7.87;nan
14343;BME280;7255;53.596;9.960;2023-02-16T17:33:27;101719.72;;;7.96;nan
14343;BME280;7255;53.596;9.960;2023-02-16T17:35:55;101707.59;;;7.85;nan
14343;BME280;7255;53.596;9.960;2023-02-16T17:38:22;101700.69;;;7.91;nan
14343;BME280;7255;53.596;9.960;2023-02-16T17:40:49;101685.97;;;7.95;nan
14343;BME280;7255;53.596;9.960;2023-02-16T17:43:17;101717.13;;;7.88;nan
14343;BME280;7255;53.596;9.960;2023-02-16T17:45:44;101661.59;;;7.90;nan
14343;BME280;7255;53.596;9.960;2023-02-16T17:48:14;101704.87;;;7.94;nan
14343;BME280;7255;53.596;9.960;2023-02-16T17:50:41;101721.41;;;7.97;nan
14343;BME280;7255;53.596;9.960;2023-02-16T17:53:11;101714.75;;;7.93;nan
14343;BME280;7255;53.596;9.960;2023-02-16T17:55:37;101725.47;;;7.93;nan
14343;BME280;7255;53.596;9.960;2023-02-16T17:58:04;101725.53;;;8.00;nan
14343;BME280;7255;53.596;9.960;2023-02-16T18:00:30;101726.34;;;8.00;nan
14343;BME280;7255;53.596;9.960;2023-02-16T18:02:56;101726.00;;;8.03;nan
14343;BME280;7255;53.596;9.960;2023-02-16T18:05:23;101717.22;;;7.95;nan
14343;BME280;7255;53.596;9.960;2023-02-16T18:07:49;101714.75;;;7.93;nan
14343;BME280;7255;53.596;9.960;2023-02-16T18:10:29;101708.94;;;7.89;nan
14343;BME280;7255;53.596;9.960;2023-02-16T18:12:56;101708.53;;;7.93;nan
14343;BME280;7255;53.596;9.960;2023-02-16T18:15:22;101720.34;;;7.83;nan
14343;BME280;7255;53.596;9.960;2023-02-16T18:17:49;101725.34;;;7.86;nan
14343;BME280;7255;53.596;9.960;2023-02-16T18:20:15;101718.78;;;7.89;nan
14343;BME280;7255;53.596;9.960;2023-02-16T18:22:42;101724.25;;;7.96;nan
14343;BME280;7255;53.596;9.960;2023-02-16T18:25:08;101735.31;;;7.93;nan
14343;BME280;7255;53.596;9.960;2023-02-16T18:27:36;101730.22;;;7.83;nan
14343;BME280;7255;53.596;9.960;2023-02-16T18:30:03;101731.50;;;7.87;nan
14343;BME280;7255;53.596;9.960;2023-02-16T18:32:30;101723.59;;;7.79;nan
14343;BME280;7255;53.596;9.960;2023-02-16T18:34:57;101724.53;;;7.86;nan
14343;BME280;7255;53.596;9.960;2023-02-16T18:37:23;101723.31;;;7.88;nan
14343;BME280;7255;53.596;9.960;2023-02-16T18:39:50;101725.69;;;7.83;nan
14343;BME280;7255;53.596;9.960;2023-02-16T18:42:16;101722.25;;;7.75;nan
14343;BME280;7255;53.596;9.960;2023-02-16T18:44:44;101720.97;;;7.70;nan
14343;BME280;7255;53.596;9.960;2023-02-16T18:47:12;101729.63;;;7.72;nan
14343;BME280;7255;53.596;9.960;2023-02-16T18:49:39;101721.34;;;7.67;nan
14343;BME280;7255;53.596;9.960;2023-02-16T18:52:06;101730.97;;;7.77;nan
14343;BME280;7255;53.596;9.960;2023-02-16T18:54:32;101723.19;;;7.82;nan
14343;BME280;7255;53.596;9.960;2023-02-16T18:56:58;101717.50;;;7.85;nan
14343;BME280;7255;53.596;9.960;2023-02-16T18:59:25;101715.00;;;7.83;nan
14343;BME280;7255;53.596;9.960;2023-02-16T19:01:55;101712.44;;;7.90;nan
14343;BME280;7255;53.596;9.960;2023-02-16T19:04:22;101710.47;;;7.84;nan
14343;BME280;7255;53.596;9.960;2023-02-16T19:06:49;101710.09;;;7.87;nan
14343;BME280;7255;53.596;9.960;2023-02-16T19:09:15;101708.94;;;7.89;nan
14343;BME280;7255;53.596;9.960;2023-02-16T19:11:42;101714.00;;;7.99;nan
14343;BME280;7255;53.596;9.960;2023-02-16T19:14:08;101694.63;;;7.97;nan
14343;BME280;7255;53.596;9.960;2023-02-16T19:16:35;101701.28;;;8.01;nan
14343;BME280;7255;53.596;9.960;2023-02-16T19:19:03;101701.28;;;8.01;nan
14343;BME280;7255;53.596;9.960;2023-02-16T19:21:29;101694.25;;;8.00;nan
14343;BME280;7255;53.596;9.960;2023-02-16T19:23:56;101698.88;;;8.06;nan
14343;BME280;7255;53.596;9.960;2023-02-16T19:26:22;101693.88;;;8.03;nan
14343;BME280;7255;53.596;9.960;2023-02-16T19:28:48;101689.81;;;8.07;nan
14343;BME280;7255;53.596;9.960;2023-02-16T19:31:17;101688.63;;;8.10;nan
14343;BME280;7255;53.596;9.960;2023-02-16T19:33:43;101691.50;;;8.08;nan
14343;BME280;7255;53.596;9.960;2023-02-16T19:36:12;101696.28;;;8.13;nan
14343;BME280;7255;53.596;9.960;2023-02-16T19:38:39;101688.69;;;8.17;nan
14343;BME280;7255;53.596;9.960;2023-02-16T19:41:08;101691.94;;;8.12;nan
14343;BME280;7255;53.596;9.960;2023-02-16T19:43:34;101680.87;;;8.15;nan
14343;BME280;7255;53.596;9.960;2023-02-16T19:46:01;101682.06;;;8.13;nan
14343;BME280;7255;53.596;9.960;2023-02-16T19:48:27;101674.22;;;8.11;nan
14343;BME280;7255;53.596;9.960;2023-02-16T19:50:55;101677.06;;;8.09;nan
14343;BME280;7255;53.596;9.960;2023-02-16T19:53:23;101599.72;;;8.15;nan
14343;BME280;7255;53.596;9.960;2023-02-16T19:55:49;101668.03;;;8.10;nan
14343;BME280;7255;53.596;9.960;2023-02-16T19:58:16;101655.28;;;8.13;nan
14343;BME280;7255;53.596;9.960;2023-02-16T20:00:43;101646.63;;;8.10;nan
14343;BME280;7255;53.596;9.960;2023-02-16T20:03:09;101640.00;;;8.06;nan
14343;BME280;7255;53.596;9.960;2023-02-16T20:05:35;101641.62;;;8.07;nan
14343;BME280;7255;53.596;9.960;2023-02-16T20:08:02;101650.31;;;8.09;nan
14343;BME280;7255;53.596;9.960;2023-02-16T20:10:29;101649.59;;;8.16;nan
14343;BME280;7255;53.596;9.960;2023-02-16T20:12:57;101645.03;;;8.16;nan
14343;BME280;7255;53.596;9.960;2023-02-16T20:15:23;101642.50;;;8.08;nan
14343;BME280;7255;53.596;9.960;2023-02-16T20:17:50;101647.00;;;8.07;nan
14343;BME280;7255;53.596;9.960;2023-02-16T20:20:17;101642.56;;;8.15;nan
14343;BME280;7255;53.596;9.960;2023-02-16T20:22:43;101643.87;;;8.19;nan
14343;BME280;7255;53.596;9.960;2023-02-16T20:25:10;101621.22;;;8.21;nan
14343;BME280;7255;53.596;9.960;2023-02-16T20:27:38;101623.16;;;8.13;nan
14343;BME280;7255;53.596;9.960;2023-02-16T20:30:06;101615.41;;;8.18;nan
14343;BME280;7255;53.596;9.960;2023-02-16T20:32:33;101612.94;;;8.16;nan
14343;BME280;7255;53.596;9.960;2023-02-16T20:35:01;101617.09;;;8.19;nan
14343;BME280;7255;53.596;9.960;2023-02-16T20:37:27;101613.37;;;8.20;nan
14343;BME280;7255;53.596;9.960;2023-02-16T20:39:54;101611.28;;;8.15;nan
14343;BME280;7255;53.596;9.960;2023-02-16T20:42:21;101603.94;;;8.24;nan
14343;BME280;7255;53.596;9.960;2023-02-16T20:44:49;101594.53;;;8.28;nan
14343;BME280;7255;53.596;9.960;2023-02-16T20:47:15;101587.88;;;8.24;nan
14343;BME280;7255;53.596;9.960;2023-02-16T20:49:42;101585.03;;;8.25;nan
14343;BME280;7255;53.596;9.960;2023-02-16T20:52:08;101580.88;;;8.23;nan
14343;BME280;7255;53.596;9.960;2023-02-16T20:54:35;101574.25;;;8.19;nan
14343;BME280;7255;53.596;9.960;2023-02-16T20:57:02;101574.16;;;8.12;nan
14343;BME280;7255;53.596;9.960;2023-02-16T20:59:28;101567.59;;;8.15;nan
14343;BME280;7255;53.596;9.960;2023-02-16T21:01:56;101553.56;;;8.13;nan